Time;durP1;ratioP1;P1;durP2;ratioP2;P2;SDS_P1;SDS_P2;PMS_P1;PMS_P2;Temp;Humidity;BMP_temperature;BMP_pressure;BME280_temperature;BME280_humidity;BME280_pressure;Samples;Min_cycle;Max_cycle;Signal;HPM_P1;HPM_P2
2023/05/20 00:02:00;;;;;;;2.83;1.63;;;14.40;97.90;;;15.06;84.60;98430.38;4927954;29;20479;-77
2023/05/20 00:04:28;;;;;;;2.57;1.67;;;14.30;98.30;;;15.06;83.90;98431.16;4927445;29;20979;-77
2023/05/20 00:06:57;;;;;;;1.67;1.50;;;14.30;98.20;;;15.04;84.79;98427.94;4922169;29;23226;-76
2023/05/20 00:09:25;;;;;;;2.80;1.47;;;14.20;98.90;;;15.07;84.82;98431.97;4925936;29;20837;-77
2023/05/20 00:11:55;;;;;;;5.77;1.60;;;14.30;98.50;;;15.01;85.10;98424.91;4926715;29;20482;-78
2023/05/20 00:14:24;;;;;;;2.70;1.37;;;14.20;98.50;;;15.02;84.69;98426.53;4927466;29;20536;-77
2023/05/20 00:16:53;;;;;;;5.20;1.90;;;14.30;98.30;;;15.02;84.83;98419.44;4926357;29;20477;-78
2023/05/20 00:19:21;;;;;;;2.17;1.70;;;14.30;98.70;;;15.01;86.15;98427.53;4922794;29;20462;-80
2023/05/20 00:21:50;;;;;;;2.67;1.90;;;14.30;98.70;;;14.98;86.67;98426.13;4925386;29;20557;-77
2023/05/20 00:24:18;;;;;;;2.10;1.30;;;14.30;98.80;;;14.97;86.75;98431.59;4922310;29;20953;-77
2023/05/20 00:26:48;;;;;;;2.00;1.80;;;14.20;98.90;;;14.95;87.72;98425.75;4920571;29;20493;-77
2023/05/20 00:29:17;;;;;;;4.37;1.70;;;14.20;99.30;;;14.95;87.33;98423.09;4924580;29;20514;-77
2023/05/20 00:31:46;;;;;;;2.20;1.50;;;14.20;98.80;;;14.95;87.65;98421.28;4923257;29;20529;-77
2023/05/20 00:34:14;;;;;;;5.27;2.40;;;14.20;99.00;;;14.95;88.13;98428.38;4923709;29;20514;-78
2023/05/20 00:36:43;;;;;;;1.40;1.30;;;14.20;99.40;;;14.95;88.58;98420.47;4924367;29;20478;-78
2023/05/20 00:39:12;;;;;;;3.20;1.70;;;14.20;99.20;;;14.92;88.75;98418.25;4923685;29;20462;-77
2023/05/20 00:41:41;;;;;;;2.10;1.57;;;14.20;99.50;;;14.93;87.88;98415.41;4925764;29;20474;-77
2023/05/20 00:44:10;;;;;;;2.60;1.80;;;14.20;98.70;;;14.92;87.82;98413.78;4923581;29;20510;-77
2023/05/20 00:46:40;;;;;;;3.17;1.40;;;14.20;99.30;;;14.92;88.91;98416.44;4921776;29;20550;-78
2023/05/20 00:49:09;;;;;;;3.13;1.80;;;14.10;99.60;;;14.92;89.62;98416.44;4924537;29;20467;-78
2023/05/20 00:51:39;;;;;;;7.40;1.60;;;14.10;99.80;;;14.92;89.74;98415.63;4926120;29;20865;-77
2023/05/20 00:54:07;;;;;;;4.30;1.53;;;14.10;99.40;;;14.90;88.52;98415.00;4924221;29;20501;-78
2023/05/20 00:56:37;;;;;;;2.70;1.90;;;14.10;99.30;;;14.92;89.34;98412.97;4922112;29;20538;-77
2023/05/20 00:59:06;;;;;;;2.50;1.70;;;14.10;99.70;;;14.91;88.95;98414.81;4922506;29;21076;-77
2023/05/20 01:01:35;;;;;;;4.00;2.00;;;14.10;99.30;;;14.92;88.37;98405.09;4922870;29;21060;-78
2023/05/20 01:04:05;;;;;;;6.20;2.47;;;14.20;99.00;;;14.88;88.24;98406.50;4922833;29;20470;-77
2023/05/20 01:06:36;;;;;;;2.37;1.80;;;14.10;99.30;;;14.87;89.08;98400.41;4925651;29;20830;-78
2023/05/20 01:09:05;;;;;;;2.13;1.40;;;14.10;99.40;;;14.87;89.08;98402.25;4923747;29;20529;-77
2023/05/20 01:11:42;;;;;;;4.83;1.83;;;14.10;99.40;;;14.85;89.81;98406.91;4923529;29;20899;-77
2023/05/20 01:14:17;;;;;;;3.77;2.00;;;14.00;99.80;;;14.85;90.17;98413.00;4922381;29;20944;-77
2023/05/20 01:16:50;;;;;;;1.43;1.27;;;14.00;99.60;;;14.85;89.86;98406.91;4920380;29;21581;-78
2023/05/20 01:19:36;;;;;;;4.57;1.77;;;14.10;99.60;;;14.84;89.75;98410.56;4922126;29;20934;-78
2023/05/20 01:22:11;;;;;;;5.13;1.87;;;14.10;99.40;;;14.83;90.22;98411.56;4922294;29;20474;-77
2023/05/20 01:24:42;;;;;;;2.93;2.00;;;14.10;99.60;;;14.80;90.64;98407.53;4920995;29;21036;-77
2023/05/20 01:27:13;;;;;;;2.33;1.60;;;14.10;99.50;;;14.76;91.06;98402.88;4922845;29;21019;-77
2023/05/20 01:29:44;;;;;;;2.00;1.50;;;14.00;99.60;;;14.76;90.38;98408.13;4922466;29;20566;-77
2023/05/20 01:32:21;;;;;;;6.00;1.77;;;14.00;99.30;;;14.75;89.41;98401.25;4921385;29;20456;-77
2023/05/20 01:34:53;;;;;;;4.30;1.60;;;13.90;99.20;;;14.73;89.97;98404.09;4922883;29;20526;-77
2023/05/20 01:37:25;;;;;;;1.80;1.40;;;14.00;99.50;;;14.69;90.76;98396.78;4919991;29;21008;-77
2023/05/20 01:39:56;;;;;;;4.73;1.77;;;13.90;99.70;;;14.70;90.37;98401.06;4921746;29;21082;-78
2023/05/20 01:42:27;;;;;;;13.77;1.80;;;13.90;99.70;;;14.71;90.63;98405.31;4921597;29;20470;-77
2023/05/20 01:44:57;;;;;;;2.83;1.80;;;13.90;99.80;;;14.69;90.56;98394.97;4920496;29;20482;-77
2023/05/20 01:47:26;;;;;;;4.63;1.97;;;13.90;99.70;;;14.69;91.30;98400.25;4919840;29;21208;-78
2023/05/20 01:49:56;;;;;;;10.60;4.93;;;14.00;99.90;;;14.66;92.09;98394.56;4922191;29;20466;-76
2023/05/20 01:52:26;;;;;;;2.37;2.00;;;13.90;99.80;;;14.62;92.00;98388.91;4925132;29;20471;-77
2023/05/20 01:54:56;;;;;;;2.53;1.60;;;13.90;99.70;;;14.56;92.23;98393.16;4923894;29;20529;-78
2023/05/20 01:57:24;;;;;;;5.93;1.83;;;13.80;99.70;;;14.55;91.22;98385.47;4918329;29;20541;-78
2023/05/20 01:59:53;;;;;;;2.80;1.60;;;13.80;99.50;;;14.56;91.75;98387.91;4922722;29;20484;-78
2023/05/20 02:02:21;;;;;;;4.20;1.80;;;13.90;99.70;;;14.51;92.01;98384.25;4919020;29;20985;-77
2023/05/20 02:04:54;;;;;;;2.70;1.70;;;13.80;99.80;;;14.48;91.96;98382.84;4920739;29;20474;-77
2023/05/20 02:07:23;;;;;;;3.47;2.10;;;13.80;99.60;;;14.44;91.81;98384.25;4920956;29;20466;-77
2023/05/20 02:09:52;;;;;;;2.20;1.70;;;13.70;99.70;;;14.37;91.70;98382.66;4924135;29;20467;-78
2023/05/20 02:12:22;;;;;;;5.53;2.13;;;13.70;99.70;;;14.33;92.41;98376.97;4923940;29;20467;-77
2023/05/20 02:14:52;;;;;;;2.43;1.80;;;13.60;99.90;;;14.30;92.64;98382.59;4924474;29;20501;-77
2023/05/20 02:17:21;;;;;;;2.80;1.47;;;13.60;99.90;;;14.27;93.08;98380.38;4925575;29;21186;-77
2023/05/20 02:19:49;;;;;;;3.63;2.20;;;13.50;99.90;;;14.27;92.26;98383.00;4926011;29;20475;-80
2023/05/20 02:22:18;;;;;;;3.03;1.90;;;13.60;99.80;;;14.25;92.46;98382.41;4923770;29;20483;-77
2023/05/20 02:24:46;;;;;;;2.43;2.23;;;13.50;99.70;;;14.22;92.86;98385.47;4923888;29;20901;-77
2023/05/20 02:27:15;;;;;;;3.50;1.93;;;13.40;99.90;;;14.22;92.80;98382.00;4925739;29;20467;-77
2023/05/20 02:29:45;;;;;;;2.27;1.73;;;13.40;99.90;;;14.18;93.79;98386.88;4925863;29;20605;-77
2023/05/20 02:32:16;;;;;;;2.10;1.50;;;13.40;99.90;;;14.14;94.28;98383.00;4924366;29;20477;-77
2023/05/20 02:34:45;;;;;;;4.00;1.77;;;13.40;99.90;;;14.13;94.54;98382.19;4925401;29;20482;-77
2023/05/20 02:37:13;;;;;;;4.73;2.00;;;13.30;99.90;;;14.06;95.09;98376.13;4925561;29;20470;-77
2023/05/20 02:39:42;;;;;;;4.00;2.00;;;13.20;99.90;;;14.05;95.23;98373.72;4924176;29;20494;-77
2023/05/20 02:42:13;;;;;;;3.43;1.90;;;13.30;99.90;;;14.02;95.05;98377.53;4924922;29;20482;-78
2023/05/20 02:44:41;;;;;;;6.20;1.97;;;13.30;99.90;;;14.01;95.26;98377.75;4919557;29;20474;-77
2023/05/20 02:47:12;;;;;;;5.57;2.03;;;13.30;99.90;;;13.95;95.37;98375.91;4920185;29;20463;-77
2023/05/20 02:49:41;;;;;;;2.23;1.63;;;13.20;99.90;;;13.95;94.84;98375.91;4922038;29;20466;-77
2023/05/20 02:52:10;;;;;;;3.37;2.10;;;13.20;99.90;;;13.90;95.14;98378.31;4922504;29;21656;-77
2023/05/20 02:54:38;;;;;;;12.47;1.63;;;13.20;99.90;;;13.90;95.43;98380.97;4924539;29;20473;-78
2023/05/20 02:57:07;;;;;;;3.03;1.80;;;13.10;99.90;;;13.90;95.97;98376.50;4922796;29;20561;-77
2023/05/20 02:59:35;;;;;;;2.70;1.67;;;13.10;99.90;;;13.89;96.66;98379.31;4921530;29;20481;-77
2023/05/20 03:02:04;;;;;;;2.77;1.90;;;13.10;99.90;;;13.88;97.23;98377.72;4920119;29;20470;-76
2023/05/20 03:04:37;;;;;;;2.40;1.50;;;13.10;99.90;;;13.85;98.61;98375.50;4919237;29;20477;-77
2023/05/20 03:07:07;;;;;;;3.63;1.87;;;13.10;99.90;;;13.83;98.47;98373.06;4919641;29;20553;-77
2023/05/20 03:09:37;;;;;;;2.70;1.70;;;13.10;99.90;;;13.80;98.95;98370.84;4924755;29;20480;-75
2023/05/20 03:12:06;;;;;;;5.90;3.60;;;13.00;99.90;;;13.82;98.87;98370.63;4920414;29;20558;-77
2023/05/20 03:14:35;;;;;;;4.00;1.87;;;13.00;99.90;;;13.80;99.27;98367.38;4917285;29;20478;-77
2023/05/20 03:17:05;;;;;;;2.40;1.47;;;13.10;99.90;;;13.77;100.00;98367.78;4919906;29;21021;-77
2023/05/20 03:19:35;;;;;;;8.03;2.10;;;13.00;99.90;;;13.73;100.00;98364.75;4919005;29;20525;-77
2023/05/20 03:22:04;;;;;;;3.33;2.03;;;13.00;99.90;;;13.73;100.00;98370.00;4921787;29;20525;-75
2023/05/20 03:24:33;;;;;;;4.43;1.70;;;13.00;99.90;;;13.70;100.00;98374.84;4920741;29;20470;-76
2023/05/20 03:27:02;;;;;;;10.53;2.63;;;12.90;99.90;;;13.67;100.00;98373.44;4921873;29;20716;-77
2023/05/20 03:29:32;;;;;;;1.90;1.60;;;12.90;99.90;;;13.65;100.00;98372.00;4920646;29;21009;-77
2023/05/20 03:32:02;;;;;;;4.27;1.93;;;13.00;99.90;;;13.60;100.00;98373.44;4919918;29;20806;-75
2023/05/20 03:34:30;;;;;;;2.60;1.93;;;12.90;99.90;;;13.58;100.00;98370.16;4923100;29;20470;-76
2023/05/20 03:37:00;;;;;;;3.13;1.63;;;12.90;99.90;;;13.55;100.00;98370.56;4921791;29;20502;-76
2023/05/20 03:39:30;;;;;;;2.20;1.90;;;12.80;99.90;;;13.50;100.00;98370.34;4920856;29;20474;-77
2023/05/20 03:42:01;;;;;;;4.83;1.70;;;12.70;99.90;;;13.44;100.00;98365.06;4924383;29;20480;-77
2023/05/20 03:44:32;;;;;;;4.50;1.80;;;12.70;99.90;;;13.41;100.00;98361.03;4924780;29;20462;-77
2023/05/20 03:47:00;;;;;;;6.37;2.00;;;12.70;99.90;;;13.34;100.00;98360.19;4924110;29;20478;-77
2023/05/20 03:49:29;;;;;;;1.87;1.70;;;12.50;99.90;;;13.33;100.00;98363.03;4923807;29;20531;-77
2023/05/20 03:51:58;;;;;;;2.67;2.03;;;12.50;99.90;;;13.31;100.00;98365.84;4924240;29;20558;-77
2023/05/20 03:54:30;;;;;;;3.60;2.07;;;12.60;99.90;;;13.27;100.00;98364.59;4920927;29;20883;-76
2023/05/20 03:56:59;;;;;;;3.53;1.90;;;12.50;99.90;;;13.22;100.00;98366.22;4921210;29;20952;-76
2023/05/20 03:59:28;;;;;;;5.10;2.03;;;12.40;99.90;;;13.19;100.00;98370.00;4919156;29;21305;-77
2023/05/20 04:01:58;;;;;;;3.50;2.30;;;12.40;99.90;;;13.16;100.00;98365.16;4905708;29;21170;-77
2023/05/20 04:04:28;;;;;;;2.67;1.93;;;12.30;99.90;;;13.15;100.00;98371.44;4920866;29;20466;-77
2023/05/20 04:06:59;;;;;;;3.90;1.90;;;12.30;99.90;;;13.13;100.00;98362.94;4918761;29;20474;-77
2023/05/20 04:09:29;;;;;;;6.00;2.20;;;12.30;99.90;;;13.09;100.00;98359.06;4923082;29;20631;-77
2023/05/20 04:11:59;;;;;;;4.30;2.20;;;12.30;99.90;;;13.07;100.00;98358.44;4918796;29;20466;-77
2023/05/20 04:14:28;;;;;;;2.03;1.77;;;12.20;99.90;;;13.09;100.00;98362.50;4920822;29;20466;-77
2023/05/20 04:16:58;;;;;;;2.13;1.87;;;12.30;99.90;;;13.06;100.00;98362.06;4919505;29;20505;-76
2023/05/20 04:19:28;;;;;;;4.73;2.40;;;12.30;99.90;;;13.04;100.00;98359.63;4919738;29;20868;-80
2023/05/20 04:21:57;;;;;;;3.33;2.07;;;12.20;99.90;;;13.03;100.00;98363.25;4919938;29;20478;-76
2023/05/20 04:24:28;;;;;;;5.50;2.83;;;12.20;99.90;;;13.01;100.00;98353.97;4921812;29;20477;-77
2023/05/20 04:26:57;;;;;;;3.13;1.80;;;12.20;99.90;;;13.00;100.00;98353.16;4923639;29;20477;-77
2023/05/20 04:29:33;;;;;;;7.20;2.20;;;12.20;99.90;;;12.97;100.00;98361.41;4925113;29;20472;-76
2023/05/20 04:32:22;;;;;;;108.23;50.13;;;12.10;99.90;;;12.98;100.00;98362.22;4928445;29;20474;-78
2023/05/20 04:34:56;;;;;;;6.33;3.20;;;12.10;99.90;;;12.99;100.00;98361.22;4921310;29;21027;-77
2023/05/20 04:37:25;;;;;;;4.47;2.13;;;12.10;99.90;;;12.97;100.00;98350.09;4925370;29;20497;-77
2023/05/20 04:39:55;;;;;;;2.97;2.10;;;12.10;99.90;;;12.96;100.00;98351.91;4928456;29;20470;-78
2023/05/20 04:42:24;;;;;;;2.63;1.90;;;12.10;99.90;;;12.96;100.00;98346.66;4929196;29;20472;-77
2023/05/20 04:44:53;;;;;;;2.27;1.97;;;12.10;99.90;;;12.96;100.00;98337.97;4928636;29;21060;-77
2023/05/20 04:47:22;;;;;;;5.10;2.47;;;12.10;99.90;;;12.97;100.00;98339.59;4927768;29;20470;-78
2023/05/20 04:49:50;;;;;;;2.20;1.80;;;12.10;99.90;;;12.97;100.00;98345.66;4929442;29;20474;-78
2023/05/20 04:52:19;;;;;;;4.03;1.83;;;12.10;99.90;;;12.97;100.00;98343.03;4928988;29;20471;-77
2023/05/20 04:54:49;;;;;;;3.30;1.90;;;12.20;99.90;;;12.95;100.00;98338.97;4929449;29;20467;-78
2023/05/20 04:57:20;;;;;;;2.10;1.87;;;12.10;99.90;;;12.96;100.00;98343.22;4928961;29;20962;-78
2023/05/20 04:59:49;;;;;;;3.37;2.40;;;12.20;99.90;;;12.95;100.00;98336.34;4927597;29;20514;-78
2023/05/20 05:02:17;;;;;;;3.33;1.80;;;12.10;99.90;;;12.96;100.00;98340.59;4927222;29;20513;-78
2023/05/20 05:04:49;;;;;;;2.57;1.90;;;12.10;99.90;;;12.99;100.00;98340.19;4927837;29;20973;-77
2023/05/20 05:07:18;;;;;;;3.97;2.03;;;12.10;99.90;;;13.01;100.00;98343.47;4928683;29;21477;-78
2023/05/20 05:09:57;;;;;;;2.93;2.10;;;12.20;99.90;;;12.98;100.00;98344.63;4929292;29;20498;-77
2023/05/20 05:12:28;;;;;;;4.27;2.00;;;12.20;99.90;;;12.99;100.00;98335.75;4928286;29;20820;-78
2023/05/20 05:14:57;;;;;;;2.33;1.73;;;12.20;99.90;;;13.01;100.00;98335.59;4927106;29;20474;-78
2023/05/20 05:17:27;;;;;;;2.30;1.90;;;12.20;99.90;;;13.02;100.00;98338.00;4928883;29;20509;-78
2023/05/20 05:19:56;;;;;;;7.80;2.00;;;12.20;99.90;;;13.07;100.00;98333.00;4928304;29;20531;-78
2023/05/20 05:22:25;;;;;;;11.57;3.07;;;12.20;99.90;;;13.13;100.00;98334.03;4926388;29;20824;-77
2023/05/20 05:24:55;;;;;;;4.90;2.30;;;12.30;99.90;;;13.15;100.00;98339.09;4926510;29;21018;-78
2023/05/20 05:27:23;;;;;;;3.57;2.03;;;12.30;99.90;;;13.18;100.00;98330.84;4927009;29;20841;-78
2023/05/20 05:29:53;;;;;;;6.57;2.60;;;12.30;99.90;;;13.18;100.00;98323.78;4927632;29;20525;-78
2023/05/20 05:32:22;;;;;;;6.33;2.37;;;12.40;99.90;;;13.18;100.00;98321.16;4928685;29;20518;-78
2023/05/20 05:34:54;;;;;;;3.53;2.57;;;12.40;99.90;;;13.22;100.00;98324.19;4926930;29;20992;-77
2023/05/20 05:37:22;;;;;;;3.60;2.47;;;12.40;99.90;;;13.25;100.00;98314.09;4926099;29;21198;-78
2023/05/20 05:39:52;;;;;;;3.27;2.33;;;12.40;99.90;;;13.27;100.00;98319.97;4928525;29;21222;-77
2023/05/20 05:42:20;;;;;;;2.67;2.23;;;12.40;99.90;;;13.32;100.00;98320.19;4927791;29;20534;-78
2023/05/20 05:44:50;;;;;;;3.20;2.47;;;12.50;99.90;;;13.34;100.00;98318.16;4926475;29;21028;-78
2023/05/20 05:47:21;;;;;;;4.10;2.20;;;12.50;99.90;;;13.39;100.00;98315.75;4927818;29;20478;-77
2023/05/20 05:49:52;;;;;;;5.07;2.03;;;12.60;99.90;;;13.44;100.00;98315.97;4926517;29;20466;-77
2023/05/20 05:52:20;;;;;;;4.03;2.33;;;12.70;99.90;;;13.46;100.00;98307.91;4927387;29;20469;-78
2023/05/20 05:54:49;;;;;;;3.27;2.00;;;12.70;99.90;;;13.52;100.00;98307.09;4927365;29;20837;-77
2023/05/20 05:57:18;;;;;;;5.10;2.67;;;12.80;99.90;;;13.55;100.00;98315.38;4927328;29;20502;-77
2023/05/20 05:59:47;;;;;;;4.03;2.17;;;12.70;99.90;;;13.60;100.00;98323.50;4927409;29;20650;-77
2023/05/20 06:02:16;;;;;;;3.27;2.70;;;12.80;99.90;;;13.64;100.00;98317.84;4924978;29;20474;-77
2023/05/20 06:04:47;;;;;;;6.23;2.50;;;12.80;99.90;;;13.72;100.00;98315.00;4926954;29;20467;-77
2023/05/20 06:07:16;;;;;;;7.93;2.50;;;12.90;99.90;;;13.75;100.00;98314.59;4927511;29;20474;-77
2023/05/20 06:09:44;;;;;;;3.93;2.70;;;13.00;99.90;;;13.78;100.00;98314.22;4927886;29;20475;-77
2023/05/20 06:12:13;;;;;;;2.07;1.80;;;13.00;99.90;;;13.80;100.00;98317.44;4927493;29;20490;-77
2023/05/20 06:14:42;;;;;;;5.03;2.40;;;13.00;99.90;;;13.85;100.00;98309.78;4927005;29;20477;-77
2023/05/20 06:17:11;;;;;;;3.53;2.43;;;13.00;99.90;;;13.91;100.00;98303.72;4927036;29;20509;-77
2023/05/20 06:19:40;;;;;;;3.10;2.23;;;13.10;99.90;;;13.96;100.00;98299.44;4927711;29;20475;-77
2023/05/20 06:22:09;;;;;;;3.90;2.60;;;13.20;99.90;;;13.99;100.00;98300.88;4926342;29;20570;-77
2023/05/20 06:24:38;;;;;;;8.33;2.23;;;13.20;99.90;;;14.02;100.00;98298.63;4926790;29;20496;-78
2023/05/20 06:27:07;;;;;;;4.27;2.27;;;13.20;99.90;;;14.07;100.00;98304.13;4926133;29;20462;-77
2023/05/20 06:29:35;;;;;;;5.40;3.07;;;13.30;99.90;;;14.05;100.00;98297.44;4927146;29;20490;-78
2023/05/20 06:32:05;;;;;;;10.03;3.17;;;13.20;99.90;;;14.09;100.00;98298.66;4925852;29;20478;-78
2023/05/20 06:34:34;;;;;;;3.87;2.50;;;13.30;99.90;;;14.12;100.00;98298.25;4926417;29;20478;-77
2023/05/20 06:37:02;;;;;;;4.27;2.50;;;13.30;99.90;;;14.12;100.00;98298.25;4925834;29;20842;-77
2023/05/20 06:39:33;;;;;;;3.67;2.70;;;13.30;99.90;;;14.20;100.00;98292.75;4925702;29;20485;-77
2023/05/20 06:42:02;;;;;;;5.27;3.00;;;13.40;99.90;;;14.24;100.00;98296.63;4924975;29;20474;-77
2023/05/20 06:44:31;;;;;;;4.43;2.83;;;13.40;99.90;;;14.25;100.00;98292.97;4926690;29;20471;-77
2023/05/20 06:47:00;;;;;;;4.07;2.53;;;13.40;99.90;;;14.29;100.00;98291.56;4926620;29;20558;-78
2023/05/20 06:49:29;;;;;;;5.20;2.90;;;13.40;99.90;;;14.37;100.00;98286.09;4924645;29;20477;-77
2023/05/20 06:51:57;;;;;;;4.77;2.30;;;13.50;99.90;;;14.38;100.00;98277.19;4926285;29;20501;-78
2023/05/20 06:54:26;;;;;;;10.37;2.77;;;13.60;99.90;;;14.42;100.00;98280.22;4925954;29;20562;-78
2023/05/20 06:56:56;;;;;;;2.77;2.40;;;13.60;99.90;;;14.48;100.00;98282.84;4924195;29;20873;-77
2023/05/20 06:59:26;;;;;;;3.90;2.67;;;13.70;99.90;;;14.53;100.00;98285.69;4927098;29;20511;-77
2023/05/20 07:01:54;;;;;;;13.03;2.70;;;13.80;99.90;;;14.56;100.00;98281.81;4925637;29;20481;-77
2023/05/20 07:04:24;;;;;;;3.37;2.70;;;13.80;99.90;;;14.59;100.00;98292.75;4925454;29;20470;-78
2023/05/20 07:06:52;;;;;;;2.83;2.47;;;13.90;99.90;;;14.67;100.00;98283.00;4925952;29;20491;-78
2023/05/20 07:09:21;;;;;;;7.97;3.10;;;13.90;99.90;;;14.71;100.00;98281.59;4926120;29;20474;-78
2023/05/20 07:11:49;;;;;;;3.07;2.40;;;13.90;99.90;;;14.75;100.00;98285.44;4925036;29;20498;-78
2023/05/20 07:14:19;;;;;;;5.33;2.77;;;13.90;99.90;;;14.83;100.00;98282.53;4926894;29;20466;-77
2023/05/20 07:16:48;;;;;;;5.30;2.90;;;14.10;99.90;;;14.87;100.00;98273.22;4925864;29;20473;-78
2023/05/20 07:19:16;;;;;;;4.77;2.73;;;14.10;99.90;;;14.91;100.00;98279.69;4926633;29;20554;-78
2023/05/20 07:21:45;;;;;;;3.20;2.33;;;14.20;99.90;;;14.95;100.00;98271.16;4925637;29;20510;-78
2023/05/20 07:24:14;;;;;;;4.07;2.83;;;14.20;99.90;;;15.03;100.00;98270.09;4926778;29;20470;-77
2023/05/20 07:26:42;;;;;;;4.13;2.80;;;14.30;99.90;;;15.05;100.00;98271.53;4926434;29;21092;-77
2023/05/20 07:29:11;;;;;;;4.33;2.40;;;14.30;99.90;;;15.11;100.00;98269.88;4926522;29;20989;-78
2023/05/20 07:31:41;;;;;;;9.30;3.60;;;14.40;99.90;;;15.10;100.00;98266.41;4924197;29;20482;-78
2023/05/20 07:34:11;;;;;;;5.20;2.83;;;14.30;99.90;;;15.16;100.00;98256.06;4925237;29;20484;-78
2023/05/20 07:36:39;;;;;;;4.33;2.63;;;14.40;99.90;;;15.18;100.00;98265.38;4924350;29;20462;-78
2023/05/20 07:39:09;;;;;;;7.40;3.20;;;14.40;99.90;;;15.21;100.00;98270.22;4924752;29;20510;-78
2023/05/20 07:41:42;;;;;;;4.43;2.57;;;14.40;99.90;;;15.27;100.00;98264.09;4925476;29;20475;-77
2023/05/20 07:44:11;;;;;;;4.13;3.20;;;14.50;99.90;;;15.32;100.00;98263.47;4924170;29;20458;-78
2023/05/20 07:46:41;;;;;;;3.57;2.80;;;14.60;99.90;;;15.37;100.00;98258.41;4926051;29;20482;-78
2023/05/20 07:49:10;;;;;;;5.20;3.60;;;14.70;99.90;;;15.43;100.00;98255.72;4925507;29;20511;-78
2023/05/20 07:51:39;;;;;;;5.47;3.27;;;14.80;99.90;;;15.48;100.00;98249.81;4926250;29;20475;-78
2023/05/20 07:54:11;;;;;;;4.23;3.20;;;14.80;99.90;;;15.55;100.00;98242.66;4924889;29;20474;-78
2023/05/20 07:56:39;;;;;;;4.50;3.33;;;14.80;99.90;;;15.62;100.00;98238.16;4925978;29;20502;-78
2023/05/20 07:59:09;;;;;;;5.20;3.40;;;14.90;99.90;;;15.73;100.00;98244.56;4924605;29;20501;-78
2023/05/20 08:01:41;;;;;;;7.23;2.90;;;15.00;99.90;;;15.79;100.00;98246.38;4927953;29;20477;-78
2023/05/20 08:04:09;;;;;;;4.80;3.33;;;15.10;99.90;;;15.86;100.00;98242.63;4929006;29;20529;-78
2023/05/20 08:06:38;;;;;;;5.80;3.70;;;15.20;99.90;;;15.92;100.00;98240.97;4927893;29;20502;-78
2023/05/20 08:09:07;;;;;;;6.17;3.50;;;15.30;99.90;;;15.97;100.00;98243.75;4928643;29;21008;-78
2023/05/20 08:11:35;;;;;;;8.87;3.60;;;15.40;99.90;;;16.03;100.00;98248.19;4927106;29;20512;-78
2023/05/20 08:14:05;;;;;;;5.47;3.10;;;15.40;99.90;;;16.07;100.00;98244.88;4928319;29;20477;-78
2023/05/20 08:16:36;;;;;;;10.27;2.93;;;15.40;99.90;;;16.10;100.00;98248.94;4927039;29;20521;-78
2023/05/20 08:19:06;;;;;;;5.00;3.20;;;15.40;99.90;;;16.11;100.00;98246.06;4926559;29;20823;-77
2023/05/20 08:21:35;;;;;;;6.67;3.53;;;15.40;99.90;;;16.16;100.00;98250.72;4927122;29;21060;-78
2023/05/20 08:24:04;;;;;;;4.00;3.00;;;15.60;99.90;;;16.17;100.00;98244.41;4928892;29;21040;-78
2023/05/20 08:26:33;;;;;;;18.33;3.13;;;15.50;99.90;;;16.20;100.00;98254.53;4929323;29;20467;-78
2023/05/20 08:29:02;;;;;;;12.10;3.10;;;15.50;99.90;;;16.20;100.00;98249.25;4930463;29;20480;-78
2023/05/20 08:31:31;;;;;;;4.17;3.20;;;15.50;99.90;;;16.22;100.00;98257.75;4930207;29;20561;-78
2023/05/20 08:33:59;;;;;;;3.53;2.80;;;15.60;99.90;;;16.22;100.00;98246.38;4928628;29;20509;-77
2023/05/20 08:36:29;;;;;;;6.77;3.37;;;15.50;99.90;;;16.29;100.00;98237.38;4930019;29;20479;-78
2023/05/20 08:38:58;;;;;;;4.20;3.30;;;15.70;99.90;;;16.33;100.00;98237.75;4929018;29;20502;-78
2023/05/20 08:41:27;;;;;;;6.50;3.60;;;15.70;99.90;;;16.37;100.00;98237.09;4927795;29;20466;-78
2023/05/20 08:44:00;;;;;;;5.40;3.57;;;15.70;99.90;;;16.37;100.00;98233.66;4929256;29;20526;-77
2023/05/20 08:46:33;;;;;;;5.37;2.97;;;15.70;99.90;;;16.42;100.00;98224.03;4927177;29;20497;-77
2023/05/20 08:49:02;;;;;;;7.00;4.27;;;15.70;99.90;;;16.47;100.00;98223.38;4928077;29;20478;-77
2023/05/20 08:51:37;;;;;;;8.10;3.53;;;15.70;99.90;;;16.57;100.00;98218.44;4926997;29;20475;-78
2023/05/20 08:54:07;;;;;;;5.10;3.63;;;15.80;99.90;;;16.62;100.00;98223.06;4928031;29;20476;-77
2023/05/20 08:56:38;;;;;;;6.97;3.90;;;15.90;99.90;;;16.68;100.00;98227.44;4929510;29;20475;-77
2023/05/20 08:59:07;;;;;;;4.13;3.30;;;16.00;99.90;;;16.68;100.00;98225.63;4927795;29;20956;-77
2023/05/20 09:01:42;;;;;;;7.03;4.20;;;15.90;99.90;;;16.69;100.00;98229.06;4926258;29;20485;-77
2023/05/20 09:04:11;;;;;;;4.20;3.23;;;16.00;99.90;;;16.71;100.00;98232.28;4927004;29;20569;-78
2023/05/20 09:06:46;;;;;;;6.03;3.63;;;15.90;99.90;;;16.75;100.00;98242.19;4928552;29;20512;-78
2023/05/20 09:09:16;;;;;;;4.30;3.00;;;16.00;99.90;;;16.79;100.00;98247.84;4927970;29;20501;-77
2023/05/20 09:11:44;;;;;;;6.63;3.77;;;16.10;99.90;;;16.82;100.00;98237.63;4925899;29;20492;-78
2023/05/20 09:14:13;;;;;;;7.17;3.10;;;16.10;99.90;;;16.84;100.00;98240.03;4928792;29;20471;-78
2023/05/20 09:16:41;;;;;;;4.80;3.33;;;16.10;99.90;;;16.87;100.00;98242.25;4926930;29;20466;-78
2023/05/20 09:19:11;;;;;;;8.33;3.77;;;16.10;99.90;;;16.92;100.00;98242.38;4927048;29;20509;-77
2023/05/20 09:21:42;;;;;;;5.03;3.50;;;16.20;99.90;;;16.89;100.00;98232.28;4927919;29;20474;-78
2023/05/20 09:24:12;;;;;;;6.60;4.47;;;16.20;99.90;;;16.91;100.00;98241.56;4927807;29;20470;-78
2023/05/20 09:26:41;;;;;;;4.63;3.77;;;16.20;99.90;;;16.96;100.00;98238.28;4928298;29;20467;-78
2023/05/20 09:29:10;;;;;;;6.07;3.30;;;16.20;99.90;;;17.00;100.00;98234.97;4928365;29;20488;-78
2023/05/20 09:31:38;;;;;;;5.63;3.67;;;16.30;99.90;;;17.10;100.00;98245.00;4929137;29;20465;-78
2023/05/20 09:34:08;;;;;;;5.63;3.87;;;16.40;99.90;;;17.11;100.00;98236.84;4927488;29;20466;-77
2023/05/20 09:36:40;;;;;;;5.50;3.90;;;16.40;99.90;;;17.15;100.00;98231.91;4926258;29;20491;-78
2023/05/20 09:39:14;;;;;;;5.93;3.60;;;16.50;99.90;;;17.15;100.00;98239.06;4928540;29;20672;-77
2023/05/20 09:41:55;;;;;;;6.00;4.17;;;16.50;99.90;;;17.19;100.00;98229.63;4927900;29;20990;-77
2023/05/20 09:44:24;;;;;;;5.27;3.90;;;16.60;99.90;;;17.22;100.00;98227.34;4927324;29;20474;-78
2023/05/20 09:46:54;;;;;;;5.87;3.80;;;16.60;99.90;;;17.15;100.00;98225.84;4927639;29;20472;-77
2023/05/20 09:49:25;;;;;;;8.77;4.80;;;16.40;99.90;;;17.23;100.00;98225.50;4928235;29;20458;-78
2023/05/20 09:51:56;;;;;;;4.20;3.40;;;16.50;99.90;;;17.29;100.00;98225.41;4926546;29;20462;-78
2023/05/20 09:54:28;;;;;;;11.03;4.03;;;16.50;99.90;;;17.38;100.00;98232.00;4928154;29;20568;-77
2023/05/20 09:57:00;;;;;;;5.13;3.93;;;16.70;99.90;;;17.40;100.00;98222.00;4927440;29;21184;-77
2023/05/20 09:59:31;;;;;;;5.00;4.20;;;16.70;99.90;;;17.46;100.00;98212.34;4926671;29;20521;-77
2023/05/20 10:02:00;;;;;;;6.20;3.40;;;16.80;99.90;;;17.52;100.00;98216.75;4927141;29;20470;-78
2023/05/20 10:04:31;;;;;;;6.63;4.00;;;16.80;99.90;;;17.59;100.00;98218.28;4926623;29;21151;-77
2023/05/20 10:07:50;;;;;;;5.40;3.67;;;16.90;99.90;;;17.68;100.00;98200.25;4924964;29;20522;-78
2023/05/20 10:10:35;;;;;;;5.67;3.30;;;17.00;99.90;;;17.78;100.00;98207.59;4884128;29;20479;-78
2023/05/20 10:13:25;;;;;;;6.47;3.60;;;17.10;99.90;;;17.80;100.00;98195.78;4926625;29;20491;-77
2023/05/20 10:16:08;;;;;;;5.73;3.90;;;17.10;99.90;;;17.80;100.00;98197.63;4926039;29;20471;-78
2023/05/20 10:18:55;;;;;;;5.00;3.93;;;17.00;99.90;;;17.78;100.00;98195.19;4926717;29;20482;-78
2023/05/20 10:21:25;;;;;;;5.30;3.60;;;17.00;99.90;;;17.80;100.00;98202.91;4926368;29;20554;-79
2023/05/20 10:23:54;;;;;;;5.90;3.93;;;17.10;99.90;;;17.81;100.00;98199.19;4925913;29;21011;-77
2023/05/20 10:26:34;;;;;;;5.67;4.03;;;17.00;99.90;;;17.87;100.00;98199.13;4926824;29;21049;-78
2023/05/20 10:29:14;;;;;;;7.97;4.23;;;17.10;99.90;;;17.93;100.00;98192.91;4926886;29;20466;-78